Time;durP1;ratioP1;P1;durP2;ratioP2;P2;SDS_P1;SDS_P2;PMS_P1;PMS_P2;Temp;Humidity;BMP_temperature;BMP_pressure;BME280_temperature;BME280_humidity;BME280_pressure;Samples;Min_cycle;Max_cycle;Signal;HPM_P1;HPM_P2
2021/01/28 00:01:54;;;;;;;8.75;6.00;;;;;;;-1.90;58.24;94058.03;4131931;28;20431;-82
2021/01/28 00:03:55;;;;;;;9.75;6.03;;;;;;;-1.95;58.91;94049.84;4135045;28;20101;-84
2021/01/28 00:05:56;;;;;;;9.98;6.22;;;;;;;-1.90;59.18;94058.03;4134657;28;20473;-83
2021/01/28 00:07:58;;;;;;;9.77;5.95;;;;;;;-1.95;58.85;94067.81;4136302;28;20054;-84
2021/01/28 00:09:59;;;;;;;10.57;6.32;;;;;;;-2.05;58.66;94056.47;4137397;28;20118;-83
2021/01/28 00:12:00;;;;;;;8.85;6.03;;;;;;;-2.02;58.69;94063.16;4140636;28;20082;-83
2021/01/28 00:14:02;;;;;;;9.02;5.82;;;;;;;-1.97;59.07;94061.13;4133852;28;20058;-84
2021/01/28 00:16:04;;;;;;;9.45;6.15;;;;;;;-1.91;58.96;94063.31;4128072;28;20147;-84
2021/01/28 00:18:07;;;;;;;10.38;6.55;;;;;;;-2.02;59.37;94061.44;4128908;28;20050;-84
2021/01/28 00:20:12;;;;;;;9.27;6.28;;;;;;;-1.92;59.33;94054.75;4136650;28;20042;-85
2021/01/28 00:22:13;;;;;;;8.55;5.50;;;;;;;-1.92;58.80;94059.88;4135019;28;20517;-83
2021/01/28 00:24:14;;;;;;;9.55;6.00;;;;;;;-1.85;59.29;94062.88;4136093;28;20054;-83
2021/01/28 00:26:17;;;;;;;8.95;6.47;;;;;;;-1.84;59.36;94059.41;4135349;28;20050;-82
2021/01/28 00:28:20;;;;;;;10.80;6.30;;;;;;;-1.80;59.09;94072.88;4135324;28;20068;-83
2021/01/28 00:30:27;;;;;;;11.15;6.53;;;;;;;-1.82;59.53;94070.41;4139396;28;20050;-84
2021/01/28 00:32:29;;;;;;;11.55;6.60;;;;;;;-1.88;58.99;94060.53;4134423;28;20526;-83
2021/01/28 00:34:30;;;;;;;9.15;6.35;;;;;;;-1.92;59.60;94061.66;4134634;28;20042;-84
2021/01/28 00:36:31;;;;;;;11.68;6.78;;;;;;;-1.91;59.69;94068.44;4136123;28;20057;-70
2021/01/28 00:38:34;;;;;;;9.15;6.30;;;;;;;-1.87;59.50;94060.44;4131284;28;20050;-83
2021/01/28 00:40:36;;;;;;;8.80;6.30;;;;;;;-1.86;59.83;94071.53;4135584;28;20042;-82
2021/01/28 00:42:37;;;;;;;8.27;6.18;;;;;;;-1.84;59.00;94059.41;4134904;28;20050;-82
2021/01/28 00:44:38;;;;;;;10.23;6.22;;;;;;;-1.92;59.59;94067.59;4151248;28;20387;-82
2021/01/28 00:46:40;;;;;;;9.55;6.57;;;;;;;-2.01;60.01;94060.50;4137208;28;20042;-83
2021/01/28 00:48:42;;;;;;;11.60;7.10;;;;;;;-2.03;60.04;94058.94;4135023;28;20043;-84
2021/01/28 00:50:43;;;;;;;8.90;6.25;;;;;;;-2.06;59.39;94060.78;4132267;28;20057;-83
2021/01/28 00:52:45;;;;;;;11.02;6.47;;;;;;;-2.02;59.92;94058.88;4128764;28;20051;-82
2021/01/28 00:54:46;;;;;;;9.73;5.85;;;;;;;-2.02;58.97;94047.75;4126940;28;20052;-83
2021/01/28 00:56:47;;;;;;;8.30;5.88;;;;;;;-2.02;59.76;94055.44;4136275;28;20054;-84
2021/01/28 00:58:50;;;;;;;9.68;6.50;;;;;;;-1.97;59.69;94058.56;4121847;28;20054;-87
2021/01/28 01:00:51;;;;;;;10.15;7.03;;;;;;;-1.94;59.58;94058.34;4135960;28;20039;-83
2021/01/28 01:02:53;;;;;;;9.48;5.95;;;;;;;-1.92;59.63;94061.66;4141777;28;20046;-82
2021/01/28 01:04:55;;;;;;;10.05;6.03;;;;;;;-1.96;59.45;94060.19;4150857;28;20050;-84
2021/01/28 01:06:57;;;;;;;10.55;6.50;;;;;;;-2.01;59.51;94062.25;4138537;28;20062;-83
2021/01/28 01:08:59;;;;;;;9.68;6.25;;;;;;;-1.97;59.46;94058.56;4135877;28;20062;-82
2021/01/28 01:11:06;;;;;;;9.88;6.45;;;;;;;-1.88;59.27;94071.59;4148247;28;20901;-82
2021/01/28 01:13:12;;;;;;;9.75;6.57;;;;;;;-1.89;59.00;94062.28;4136829;28;20046;-83
2021/01/28 01:15:14;;;;;;;9.15;6.50;;;;;;;-1.87;59.22;94054.47;4135462;28;20516;-82
2021/01/28 01:17:17;;;;;;;11.63;6.43;;;;;;;-1.87;59.01;94051.91;4136240;28;20050;-83
2021/01/28 01:19:19;;;;;;;9.57;6.25;;;;;;;-1.89;58.95;94054.56;4137399;28;20086;-84
2021/01/28 01:21:20;;;;;;;9.07;6.63;;;;;;;-1.95;59.42;94056.72;4132519;28;20038;-70
2021/01/28 01:23:21;;;;;;;8.75;6.07;;;;;;;-2.00;59.81;94045.91;4123975;28;20506;-70
2021/01/28 01:25:30;;;;;;;8.30;6.05;;;;;;;-1.97;59.90;94051.69;4125047;28;20094;-70
2021/01/28 01:27:31;;;;;;;8.73;6.63;;;;;;;-1.88;60.06;94052.81;4121762;28;20042;-72
2021/01/28 01:29:32;;;;;;;9.45;6.55;;;;;;;-1.87;59.50;94047.59;4122979;28;20050;-70
2021/01/28 01:31:33;;;;;;;9.82;6.50;;;;;;;-1.82;59.82;94057.56;4128969;28;20042;-71
2021/01/28 01:33:35;;;;;;;9.93;6.65;;;;;;;-1.79;60.09;94051.41;4131237;28;20050;-70
2021/01/28 01:35:36;;;;;;;10.25;6.88;;;;;;;-1.87;59.91;94046.78;4122664;28;20054;-71
2021/01/28 01:37:37;;;;;;;9.30;6.53;;;;;;;-1.83;60.69;94048.19;4128849;28;20133;-71
2021/01/28 01:39:39;;;;;;;10.02;6.65;;;;;;;-1.83;60.41;94048.19;4130783;28;20153;-69
2021/01/28 01:41:40;;;;;;;10.27;6.82;;;;;;;-1.79;59.80;94047.06;4130141;28;20065;-70
2021/01/28 01:43:41;;;;;;;9.88;6.50;;;;;;;-1.75;59.67;94045.13;4130794;28;20526;-71
2021/01/28 01:45:46;;;;;;;10.65;6.78;;;;;;;-1.75;60.18;94040.00;4127346;28;20133;-70
2021/01/28 01:47:50;;;;;;;9.50;6.90;;;;;;;-1.75;60.08;94045.94;4124307;28;20082;-70
2021/01/28 01:49:51;;;;;;;7.95;5.68;;;;;;;-1.79;59.55;94052.22;4129620;28;20084;-70
2021/01/28 01:51:54;;;;;;;9.52;6.22;;;;;;;-1.75;59.02;94048.53;4145903;28;20546;-70
2021/01/28 01:54:02;;;;;;;9.43;6.22;;;;;;;-1.83;60.12;94055.91;4129775;28;20137;-70
2021/01/28 01:56:24;;;;;;;10.50;6.25;;;;;;;-1.87;59.76;94051.91;4129590;28;20507;-71
2021/01/28 01:58:50;;;;;;;7.53;5.60;;;;;;;-2.04;60.46;94047.03;4128371;28;20046;-70
2021/01/28 02:00:52;;;;;;;10.02;6.55;;;;;;;-1.94;60.59;94056.59;4123885;28;20130;-70
2021/01/28 02:02:58;;;;;;;9.38;6.38;;;;;;;-1.94;60.16;94058.34;4130305;28;20054;-71
2021/01/28 02:05:05;;;;;;;8.93;6.03;;;;;;;-1.86;59.92;94058.69;4115690;28;20050;-70
2021/01/28 02:07:14;;;;;;;8.18;6.00;;;;;;;-2.01;61.03;94052.78;4127758;28;20482;-71
2021/01/28 02:09:16;;;;;;;10.20;6.90;;;;;;;-1.96;61.17;94067.91;4134670;28;20050;-70
2021/01/28 02:11:17;;;;;;;9.02;6.10;;;;;;;-1.99;60.77;94063.78;4137590;28;20053;-82
2021/01/28 02:13:19;;;;;;;8.70;6.22;;;;;;;-1.92;60.93;94066.78;4143309;28;20105;-82
2021/01/28 02:15:21;;;;;;;9.18;6.45;;;;;;;-1.90;60.82;94064.94;4123957;28;20202;-85
2021/01/28 02:17:23;;;;;;;9.55;6.05;;;;;;;-1.88;60.64;94066.47;4134630;28;20048;-82
2021/01/28 02:19:31;;;;;;;8.77;6.25;;;;;;;-1.84;61.30;94071.44;4133579;28;20096;-82
2021/01/28 02:21:36;;;;;;;9.07;6.50;;;;;;;-1.82;60.83;94062.69;4134706;28;20057;-70
2021/01/28 02:23:46;;;;;;;9.13;6.30;;;;;;;-1.82;60.61;94060.13;4111625;28;20058;-69
2021/01/28 02:25:49;;;;;;;10.15;6.13;;;;;;;-1.90;61.39;94064.94;4129513;28;20154;-70
2021/01/28 02:27:52;;;;;;;8.82;6.15;;;;;;;-1.92;61.02;94066.78;4130010;28;20690;-70
2021/01/28 02:29:53;;;;;;;8.30;5.80;;;;;;;-1.99;60.84;94060.41;4128859;28;20061;-69
2021/01/28 02:31:55;;;;;;;8.10;5.95;;;;;;;-1.83;60.59;94070.50;4125832;28;20133;-69
2021/01/28 02:33:57;;;;;;;9.25;5.57;;;;;;;-1.92;60.42;94066.78;4118027;28;20336;-70
2021/01/28 02:35:58;;;;;;;8.15;5.60;;;;;;;-1.90;60.54;94068.31;4112069;28;20062;-70
2021/01/28 02:38:13;;;;;;;8.40;5.90;;;;;;;-1.96;60.65;94065.31;4114784;28;20407;-70
2021/01/28 02:40:16;;;;;;;9.27;6.03;;;;;;;-2.04;61.11;94065.84;4128688;28;20042;-69
2021/01/28 02:42:23;;;;;;;8.75;5.65;;;;;;;-2.00;60.34;94069.00;4124786;28;20070;-69
2021/01/28 02:44:25;;;;;;;7.65;5.18;;;;;;;-2.08;60.30;94078.03;4112860;28;20687;-71
2021/01/28 02:46:26;;;;;;;7.22;5.18;;;;;;;-2.08;60.23;94072.91;4131775;28;20096;-84
2021/01/28 02:48:27;;;;;;;7.50;5.35;;;;;;;-1.98;60.21;94072.31;4118856;28;20058;-83
2021/01/28 02:50:29;;;;;;;8.18;5.85;;;;;;;-2.00;60.18;94074.16;4135011;28;20047;-81
2021/01/28 02:52:30;;;;;;;7.75;5.50;;;;;;;-2.03;59.17;94082.06;4135236;28;20056;-84
2021/01/28 02:54:42;;;;;;;7.47;5.00;;;;;;;-2.02;59.99;94076.84;4133832;28;20135;-83
2021/01/28 02:56:44;;;;;;;6.90;4.88;;;;;;;-2.10;58.83;94076.50;4134960;28;20065;-83
2021/01/28 02:58:46;;;;;;;7.85;5.32;;;;;;;-2.15;59.28;94088.78;4124278;28;20047;-82
2021/01/28 03:00:47;;;;;;;9.02;5.45;;;;;;;-2.14;59.40;94082.75;4128622;28;20077;-82
2021/01/28 03:02:52;;;;;;;8.73;5.65;;;;;;;-2.14;59.79;94085.31;4117054;28;20055;-83
2021/01/28 03:04:53;;;;;;;8.35;5.70;;;;;;;-2.12;60.06;94086.03;4120778;28;20060;-83
2021/01/28 03:06:54;;;;;;;8.23;5.90;;;;;;;-2.11;60.11;94077.41;4134859;28;20060;-83
2021/01/28 03:08:56;;;;;;;10.95;6.47;;;;;;;-2.07;60.23;94074.53;4134499;28;20072;-84
2021/01/28 03:10:57;;;;;;;9.70;5.32;;;;;;;-2.11;59.78;94074.84;4135375;28;20101;-84
2021/01/28 03:12:58;;;;;;;7.88;5.68;;;;;;;-2.04;60.32;94072.69;4121804;28;20055;-82
2021/01/28 03:15:00;;;;;;;8.77;6.03;;;;;;;-2.02;60.32;94076.84;4136509;28;20065;-83
2021/01/28 03:17:03;;;;;;;7.75;5.50;;;;;;;-1.97;60.07;94073.97;4132708;28;20046;-83
2021/01/28 03:19:04;;;;;;;7.68;5.63;;;;;;;-2.07;60.82;94064.28;4133676;28;20059;-82
2021/01/28 03:21:07;;;;;;;8.20;5.93;;;;;;;-2.05;60.78;94059.03;4135230;28;20078;-83
2021/01/28 03:23:09;;;;;;;9.38;5.88;;;;;;;-2.04;61.13;94063.28;4134380;28;20057;-81
2021/01/28 03:25:11;;;;;;;9.10;5.65;;;;;;;-1.98;61.22;94062.03;4121956;28;20137;-82
2021/01/28 03:27:13;;;;;;;8.88;6.03;;;;;;;-1.95;61.35;94062.66;4136933;28;20050;-82
2021/01/28 03:29:14;;;;;;;8.50;5.75;;;;;;;-2.05;60.30;94053.91;4145411;28;20057;-81
2021/01/28 03:31:35;;;;;;;8.48;6.15;;;;;;;-1.95;60.58;94059.28;4140236;28;20042;-84
2021/01/28 03:33:36;;;;;;;10.98;6.20;;;;;;;-2.13;61.57;94062.13;4133447;28;20050;-82
2021/01/28 03:35:38;;;;;;;9.73;6.72;;;;;;;-2.12;61.61;94060.38;4138408;28;20070;-83
2021/01/28 03:37:39;;;;;;;9.40;6.55;;;;;;;-2.13;62.00;94069.81;4126883;28;20098;-70
2021/01/28 03:39:40;;;;;;;10.38;5.78;;;;;;;-2.20;61.82;94058.28;4120978;28;20047;-70
2021/01/28 03:41:41;;;;;;;9.02;6.18;;;;;;;-2.19;61.45;94056.56;4107045;28;20046;-72
2021/01/28 03:43:42;;;;;;;9.05;6.03;;;;;;;-2.19;62.02;94054.81;4111587;28;20046;-70
2021/01/28 03:45:44;;;;;;;9.05;5.78;;;;;;;-2.22;62.06;94055.00;4126562;28;20144;-71
2021/01/28 03:47:46;;;;;;;8.02;5.90;;;;;;;-2.29;61.98;94059.69;4123241;28;20105;-71
2021/01/28 03:49:48;;;;;;;8.40;5.93;;;;;;;-2.27;62.18;94057.84;4119928;28;20085;-71
2021/01/28 03:51:49;;;;;;;8.57;6.22;;;;;;;-2.28;62.59;94050.25;4118236;28;20103;-71
2021/01/28 03:53:50;;;;;;;8.25;5.75;;;;;;;-2.29;62.73;94048.63;4125478;28;20057;-69
2021/01/28 03:55:51;;;;;;;9.52;6.50;;;;;;;-2.22;62.43;94049.03;4126389;28;20058;-69
2021/01/28 03:57:53;;;;;;;9.57;6.68;;;;;;;-2.31;62.44;94053.84;4125506;28;20051;-69
2021/01/28 03:59:54;;;;;;;8.13;6.00;;;;;;;-2.25;62.41;94050.06;4117969;28;20051;-70
2021/01/28 04:01:56;;;;;;;11.52;6.22;;;;;;;-2.16;62.61;94049.47;4127477;28;20043;-70
2021/01/28 04:03:57;;;;;;;9.55;6.20;;;;;;;-2.15;62.20;94051.13;4111870;28;20055;-70
2021/01/28 04:05:58;;;;;;;9.38;6.30;;;;;;;-2.25;62.55;94050.06;4126262;28;20046;-70
2021/01/28 04:07:59;;;;;;;9.30;6.43;;;;;;;-2.17;62.54;94052.97;4115869;28;20051;-70
2021/01/28 04:10:00;;;;;;;9.52;6.72;;;;;;;-2.20;62.72;94052.34;4120572;28;20101;-69
2021/01/28 04:12:03;;;;;;;10.55;5.97;;;;;;;-2.27;63.02;94063.00;4120562;28;20400;-70
2021/01/28 04:14:04;;;;;;;9.98;7.00;;;;;;;-2.28;62.90;94063.06;4127314;28;20084;-72
2021/01/28 04:16:05;;;;;;;9.57;7.00;;;;;;;-2.31;63.17;94053.84;4126389;28;20496;-71
2021/01/28 04:18:07;;;;;;;9.38;6.35;;;;;;;-2.26;62.96;94061.25;4126013;28;20062;-71
2021/01/28 04:20:11;;;;;;;11.23;7.63;;;;;;;-2.24;63.10;94061.97;4126699;28;20523;-71
2021/01/28 04:22:12;;;;;;;13.25;8.60;;;;;;;-2.28;63.31;94061.34;4127309;28;20050;-72
2021/01/28 04:24:13;;;;;;;11.23;8.05;;;;;;;-2.21;63.48;94060.97;4128528;28;20582;-71
2021/01/28 04:26:14;;;;;;;11.95;7.70;;;;;;;-2.24;62.91;94072.22;4128416;28;20058;-70
2021/01/28 04:28:15;;;;;;;10.52;7.18;;;;;;;-2.22;63.31;94067.81;4125965;28;20415;-70
2021/01/28 04:30:25;;;;;;;12.00;7.57;;;;;;;-2.25;63.53;94068.03;4129954;28;20054;-70
2021/01/28 04:32:27;;;;;;;10.18;6.93;;;;;;;-2.28;63.92;94073.34;4130171;28;20057;-71
2021/01/28 04:34:28;;;;;;;10.13;7.22;;;;;;;-2.29;64.19;94067.41;4131369;28;20078;-70
2021/01/28 04:36:29;;;;;;;10.27;7.25;;;;;;;-2.28;64.62;94071.63;4131472;28;20150;-69
2021/01/28 04:38:30;;;;;;;10.75;7.30;;;;;;;-2.28;64.65;94066.50;4112463;28;20538;-69
2021/01/28 04:40:40;;;;;;;12.45;8.65;;;;;;;-2.23;65.05;94065.38;4128116;28;20157;-71
2021/01/28 04:42:46;;;;;;;10.90;7.88;;;;;;;-2.17;64.03;94078.63;4119810;28;20517;-71
2021/01/28 04:44:48;;;;;;;10.55;7.28;;;;;;;-2.14;64.06;94075.84;4131884;28;20459;-71
2021/01/28 04:46:55;;;;;;;9.05;6.32;;;;;;;-2.15;64.07;94076.78;4129543;28;20050;-72
2021/01/28 04:48:57;;;;;;;9.52;7.45;;;;;;;-2.18;64.42;94071.84;4127862;28;20117;-70
2021/01/28 04:51:01;;;;;;;9.90;6.38;;;;;;;-2.19;64.91;94080.47;4123860;28;20043;-70
2021/01/28 04:53:07;;;;;;;9.43;7.60;;;;;;;-2.15;64.85;94081.94;4138027;28;20137;-68
2021/01/28 04:55:11;;;;;;;10.18;7.40;;;;;;;-2.17;64.39;94088.91;4126036;28;20435;-71
2021/01/28 04:57:13;;;;;;;11.10;7.65;;;;;;;-2.14;64.55;94088.69;4126124;28;20129;-72
2021/01/28 04:59:28;;;;;;;10.93;8.25;;;;;;;-2.17;65.00;94086.34;4129307;28;20112;-72
2021/01/28 05:01:29;;;;;;;;;;;;;;;-2.21;64.69;94099.47;4118669;28;20085;-70
2021/01/28 05:03:46;;;;;;;12.52;7.68;;;;;;;-2.21;65.30;94097.72;4132393;28;20484;-83
2021/01/28 05:05:50;;;;;;;11.95;7.20;;;;;;;-2.12;64.82;94091.97;4119970;28;20051;-82
2021/01/28 05:07:51;;;;;;;;;;;;;;;-2.04;63.98;94095.78;4132786;28;20065;-84
2021/01/28 05:10:39;;;;;;;11.05;7.70;;;;;;;-2.00;64.21;94097.25;4124378;28;20387;-83
2021/01/28 05:12:41;;;;;;;11.38;7.10;;;;;;;-1.98;64.13;94103.09;4135538;28;20050;-84
2021/01/28 05:14:42;;;;;;;10.65;7.68;;;;;;;-2.00;64.27;94102.38;4149007;28;20058;-83
2021/01/28 05:16:46;;;;;;;10.52;6.60;;;;;;;-2.08;64.38;94101.13;4131106;28;20534;-84
2021/01/28 05:19:04;;;;;;;12.07;8.05;;;;;;;-2.04;64.46;94095.78;4125411;28;20050;-82
2021/01/28 05:21:18;;;;;;;12.75;8.32;;;;;;;-2.07;63.68;94110.47;4131570;28;20493;-83
2021/01/28 05:23:32;;;;;;;11.45;8.32;;;;;;;-2.10;64.71;94110.69;4141715;28;20073;-82
2021/01/28 05:25:38;;;;;;;14.43;8.35;;;;;;;-2.16;64.27;94116.19;4134237;28;20057;-85
2021/01/28 05:27:40;;;;;;;12.40;7.78;;;;;;;-2.16;64.62;94111.06;4134385;28;20054;-85
2021/01/28 05:29:43;;;;;;;11.07;7.13;;;;;;;-2.15;64.10;94110.16;4134760;28;20488;-84
2021/01/28 05:31:45;;;;;;;12.07;7.65;;;;;;;-2.13;64.02;94116.00;4136333;28;20397;-85
2021/01/28 05:33:47;;;;;;;11.65;7.47;;;;;;;-2.17;64.11;94122.25;4129490;28;20130;-83
2021/01/28 05:36:20;;;;;;;9.65;6.43;;;;;;;-2.16;63.42;94126.47;4127584;28;20050;-85
2021/01/28 05:38:22;;;;;;;10.05;6.47;;;;;;;-2.10;62.85;94130.38;4135042;28;20073;-83
2021/01/28 05:40:25;;;;;;;9.77;6.78;;;;;;;-2.16;62.83;94134.16;4135354;28;20050;-84
2021/01/28 05:42:28;;;;;;;10.13;7.07;;;;;;;-2.11;62.93;94134.72;4132124;28;20504;-85
2021/01/28 05:44:31;;;;;;;11.13;6.93;;;;;;;-2.09;62.53;94135.44;4131851;28;20099;-86
2021/01/28 05:46:32;;;;;;;8.85;6.47;;;;;;;-2.10;62.99;94141.47;4144709;28;20112;-84
2021/01/28 05:48:33;;;;;;;9.45;6.68;;;;;;;-2.12;62.83;94130.47;4120737;28;20047;-84
2021/01/28 05:50:35;;;;;;;8.77;6.60;;;;;;;-2.13;62.25;94151.09;4146799;28;20050;-83
2021/01/28 05:52:36;;;;;;;10.63;7.45;;;;;;;-2.04;62.74;94142.84;4130904;28;20500;-82
2021/01/28 05:54:38;;;;;;;9.48;7.25;;;;;;;-2.13;63.55;94151.09;4134979;28;20050;-84
2021/01/28 05:56:51;;;;;;;9.98;7.10;;;;;;;-2.07;62.91;94159.22;4118250;28;20094;-84
2021/01/28 05:58:57;;;;;;;10.23;6.68;;;;;;;-2.07;62.91;94155.84;4138166;28;20056;-86
2021/01/28 06:01:08;;;;;;;11.52;7.57;;;;;;;-2.01;62.47;94149.50;4136364;28;20050;-84
2021/01/28 06:03:30;;;;;;;11.05;6.45;;;;;;;-1.95;62.43;94149.94;4135856;28;20046;-86
2021/01/28 06:05:54;;;;;;;8.32;5.93;;;;;;;-1.99;62.03;94147.69;4140429;28;20085;-85
2021/01/28 06:08:24;;;;;;;8.77;6.28;;;;;;;-2.02;62.61;94146.13;4123016;28;20050;-84
2021/01/28 06:10:41;;;;;;;9.70;6.22;;;;;;;-2.09;62.66;94158.53;4151083;28;20081;-81
2021/01/28 06:13:03;;;;;;;9.30;6.13;;;;;;;-2.13;62.17;94157.06;4151416;28;20405;-83
2021/01/28 06:15:28;;;;;;;9.05;6.30;;;;;;;-2.08;62.08;94155.03;4130308;28;20050;-70
2021/01/28 06:17:38;;;;;;;9.13;6.32;;;;;;;-2.04;62.35;94152.25;4123013;28;20439;-72
2021/01/28 06:19:55;;;;;;;9.18;6.20;;;;;;;-2.04;61.60;94159.97;4128579;28;20062;-71
2021/01/28 06:21:59;;;;;;;8.55;6.30;;;;;;;-2.19;61.84;94154.88;4117072;28;20059;-71
2021/01/28 06:24:18;;;;;;;;;;;;;;;-2.16;62.04;94151.31;4129543;28;20523;-72
2021/01/28 06:26:55;;;;;;;7.97;5.78;;;;;;;-2.16;61.76;94166.69;4130251;28;19926;-71
2021/01/28 06:28:59;;;;;;;10.45;6.30;;;;;;;-2.13;61.17;94157.06;4119795;28;20050;-71
2021/01/28 06:31:17;;;;;;;9.50;6.13;;;;;;;-2.15;61.75;94158.91;4128726;28;20104;-72
2021/01/28 06:33:50;;;;;;;7.88;6.18;;;;;;;-2.10;61.79;94149.16;4128578;28;20062;-71
2021/01/28 06:36:09;;;;;;;7.13;4.97;;;;;;;-1.99;60.94;94163.06;4123312;28;20054;-71
2021/01/28 06:38:21;;;;;;;8.15;5.38;;;;;;;-1.98;61.06;94155.28;4118539;28;20054;-71
2021/01/28 06:40:26;;;;;;;8.43;4.97;;;;;;;-1.85;60.81;94152.75;4126718;28;20048;-71
2021/01/28 06:42:32;;;;;;;6.97;5.00;;;;;;;-1.86;60.15;94158.81;4114457;28;20109;-84
2021/01/28 06:44:44;;;;;;;8.50;5.28;;;;;;;-1.80;60.24;94158.41;4134087;28;20046;-86
2021/01/28 06:46:58;;;;;;;7.07;5.28;;;;;;;-1.65;59.53;94152.28;4153958;28;20056;-85
2021/01/28 06:49:25;;;;;;;7.82;5.50;;;;;;;-1.52;58.98;94151.50;4119246;28;20063;-85
2021/01/28 06:51:46;;;;;;;9.60;5.13;;;;;;;-1.50;58.66;94173.59;4124226;28;20042;-84
2021/01/28 06:53:51;;;;;;;7.13;5.05;;;;;;;-1.59;58.94;94152.81;4133916;28;20054;-84
2021/01/28 06:55:52;;;;;;;7.95;5.43;;;;;;;-1.60;58.97;94156.31;4149343;28;20060;-89
2021/01/28 06:58:06;;;;;;;10.15;6.05;;;;;;;-1.51;59.31;94158.28;4146746;28;20109;-84
2021/01/28 07:00:31;;;;;;;7.82;5.43;;;;;;;-1.41;58.89;94161.91;4141877;28;20041;-83
2021/01/28 07:02:43;;;;;;;8.52;5.72;;;;;;;-1.47;58.97;94160.53;4134219;28;20046;-86
2021/01/28 07:05:11;;;;;;;8.10;5.38;;;;;;;-1.39;58.87;94179.78;4122206;28;20056;-84
2021/01/28 07:07:14;;;;;;;8.82;5.53;;;;;;;-1.50;58.64;94175.34;4134980;28;20269;-85
2021/01/28 07:09:34;;;;;;;8.45;5.95;;;;;;;-1.33;58.39;94174.25;4150622;28;20169;-85
2021/01/28 07:11:38;;;;;;;7.40;5.75;;;;;;;-1.30;58.05;94177.44;4143418;28;20105;-85
2021/01/28 07:13:40;;;;;;;7.13;5.03;;;;;;;-1.24;58.74;94181.34;4147081;28;20110;-86
2021/01/28 07:15:46;;;;;;;6.95;5.38;;;;;;;-1.14;57.91;94182.41;4138549;28;20054;-87
2021/01/28 07:18:10;;;;;;;8.07;5.13;;;;;;;-1.08;58.49;94186.31;4121586;28;20050;-86
2021/01/28 07:20:34;;;;;;;7.30;5.10;;;;;;;-1.10;58.17;94178.72;4137856;28;20057;-86
2021/01/28 07:22:41;;;;;;;8.35;5.03;;;;;;;-1.03;57.40;94184.28;4136408;28;20111;-85
2021/01/28 07:24:42;;;;;;;7.97;5.25;;;;;;;-1.08;58.04;94181.97;4137534;28;20050;-85
2021/01/28 07:26:48;;;;;;;7.80;5.57;;;;;;;-0.89;57.57;94179.00;4135538;28;20050;-84
2021/01/28 07:28:49;;;;;;;9.15;5.97;;;;;;;-0.94;57.43;94183.66;4128617;28;20061;-71
2021/01/28 07:31:08;;;;;;;7.10;5.43;;;;;;;-0.83;57.57;94183.75;4136545;28;20073;-72
2021/01/28 07:33:25;;;;;;;8.15;5.40;;;;;;;-0.59;56.92;94187.34;4141114;28;20127;-70
2021/01/28 07:35:26;;;;;;;9.50;6.15;;;;;;;-0.52;56.45;94191.94;4125456;28;20057;-73
2021/01/28 07:37:28;;;;;;;7.88;5.70;;;;;;;-0.42;56.27;94192.16;4133411;28;20130;-71
2021/01/28 07:39:30;;;;;;;7.68;5.63;;;;;;;-0.46;55.75;94183.81;4127406;28;20142;-72
2021/01/28 07:41:41;;;;;;;7.82;5.57;;;;;;;-0.59;55.68;94193.31;4115742;28;20122;-71
2021/01/28 07:43:47;;;;;;;8.10;5.78;;;;;;;-0.56;56.09;94193.09;4127124;28;20066;-71
2021/01/28 07:45:48;;;;;;;7.38;5.00;;;;;;;-0.54;55.85;94185.25;4110639;28;20054;-69
2021/01/28 07:47:51;;;;;;;8.80;5.15;;;;;;;-0.53;55.89;94181.78;4126530;28;20050;-72
2021/01/28 07:50:20;;;;;;;6.00;4.30;;;;;;;-0.67;56.07;94185.28;4118546;28;20085;-70
2021/01/28 07:52:29;;;;;;;6.60;4.53;;;;;;;-0.72;56.08;94190.75;4105764;28;20059;-73
2021/01/28 07:54:35;;;;;;;7.80;4.80;;;;;;;-0.72;56.31;94190.75;4111007;28;20444;-71
2021/01/28 07:56:39;;;;;;;6.15;4.60;;;;;;;-0.58;55.65;94174.38;4126763;28;20054;-71
2021/01/28 07:58:44;;;;;;;6.65;4.82;;;;;;;-0.54;55.60;94180.94;4129468;28;20518;-73
2021/01/28 08:00:46;;;;;;;10.55;5.20;;;;;;;-0.60;55.48;94188.25;4125515;28;20062;-73
2021/01/28 08:03:03;;;;;;;7.55;5.13;;;;;;;-0.55;56.17;94205.03;4126654;28;20054;-72
2021/01/28 08:05:04;;;;;;;6.07;4.30;;;;;;;-0.76;56.36;94191.06;4130728;28;20058;-73
2021/01/28 08:07:08;;;;;;;5.72;4.40;;;;;;;-0.70;56.46;94196.59;4141898;28;20053;-70
2021/01/28 08:09:14;;;;;;;6.20;4.30;;;;;;;-0.90;56.64;94200.53;4119200;28;20421;-71
2021/01/28 08:11:21;;;;;;;9.10;4.78;;;;;;;-1.00;56.68;94193.53;4127893;28;20419;-71
2021/01/28 08:13:28;;;;;;;8.32;4.72;;;;;;;-0.76;56.63;94198.78;4114459;28;20051;-71
2021/01/28 08:15:39;;;;;;;6.03;4.03;;;;;;;-0.64;56.46;94187.66;4119898;28;20058;-72
2021/01/28 08:17:40;;;;;;;5.97;4.75;;;;;;;-0.57;56.75;94198.34;4119242;28;20137;-71
2021/01/28 08:19:41;;;;;;;8.40;5.15;;;;;;;-0.60;55.79;94212.25;4125903;28;20496;-74
2021/01/28 08:21:42;;;;;;;6.70;4.47;;;;;;;-0.47;55.66;94199.38;4127357;28;20050;-71
2021/01/28 08:23:45;;;;;;;8.10;5.05;;;;;;;-0.39;56.05;94216.84;4122412;28;20081;-71
2021/01/28 08:25:58;;;;;;;10.63;5.43;;;;;;;-0.37;55.61;94207.28;4130866;28;20464;-71
2021/01/28 08:28:12;;;;;;;6.60;5.10;;;;;;;-0.40;56.22;94207.50;4129758;28;20093;-72
2021/01/28 08:30:21;;;;;;;5.75;4.45;;;;;;;-0.47;55.25;94213.06;4129019;28;20046;-70
2021/01/28 08:32:26;;;;;;;7.88;5.43;;;;;;;-0.13;55.47;94215.91;4136491;28;20065;-71
2021/01/28 08:34:29;;;;;;;9.13;6.40;;;;;;;-0.06;55.62;94214.53;4135744;28;20133;-71
2021/01/28 08:36:40;;;;;;;8.35;6.43;;;;;;;0.02;55.56;94218.31;4130023;28;20077;-73
2021/01/28 08:38:41;;;;;;;10.95;6.32;;;;;;;0.11;55.30;94213.34;4140364;28;20096;-71
2021/01/28 08:40:45;;;;;;;8.27;5.60;;;;;;;0.16;54.60;94215.59;4120789;28;20046;-73
2021/01/28 08:42:47;;;;;;;7.68;5.45;;;;;;;0.30;54.36;94219.75;4134549;28;20058;-87
2021/01/28 08:44:50;;;;;;;10.63;7.07;;;;;;;0.23;55.28;94216.81;4138112;28;20050;-85
2021/01/28 08:47:06;;;;;;;9.75;6.43;;;;;;;0.28;55.06;94227.63;4139857;28;20050;-84
2021/01/28 08:49:13;;;;;;;9.52;6.38;;;;;;;0.46;55.38;94212.59;4126759;28;20050;-86
2021/01/28 08:51:18;;;;;;;8.45;6.03;;;;;;;0.56;54.50;94225.63;4123944;28;20051;-85
2021/01/28 08:53:21;;;;;;;8.80;6.15;;;;;;;0.56;54.18;94221.31;4138496;28;20468;-84
2021/01/28 08:55:25;;;;;;;6.75;4.53;;;;;;;0.60;52.84;94219.31;4137616;28;20062;-86
2021/01/28 08:57:26;;;;;;;6.03;4.25;;;;;;;0.48;52.24;94221.03;4135388;28;20050;-84
2021/01/28 08:59:33;;;;;;;5.70;3.90;;;;;;;0.38;51.95;94231.16;4123895;28;20097;-86
2021/01/28 09:01:38;;;;;;;7.07;3.72;;;;;;;0.18;52.30;94239.50;4135767;28;20051;-85
2021/01/28 09:04:01;;;;;;;5.70;4.05;;;;;;;0.22;52.99;94232.38;4138081;28;20076;-84
2021/01/28 09:06:02;;;;;;;4.90;2.88;;;;;;;0.10;52.77;94234.88;4141392;28;20113;-87
2021/01/28 09:08:07;;;;;;;7.82;3.92;;;;;;;0.24;53.29;94225.34;4140624;28;20050;-85
2021/01/28 09:10:10;;;;;;;5.97;4.45;;;;;;;0.47;52.83;94224.53;4149215;28;20064;-85
2021/01/28 09:12:17;;;;;;;5.50;3.08;;;;;;;0.57;51.39;94229.88;4146120;28;20056;-87
2021/01/28 09:14:33;;;;;;;5.25;3.90;;;;;;;0.56;52.50;94228.22;4138758;28;20480;-85
2021/01/28 09:16:35;;;;;;;9.65;4.93;;;;;;;0.29;54.24;94242.13;4127759;28;20096;-84
2021/01/28 09:18:44;;;;;;;7.80;4.78;;;;;;;-0.46;55.11;94242.19;4145830;28;20047;-86
2021/01/28 09:20:45;;;;;;;6.85;4.28;;;;;;;-0.77;55.30;94243.44;4147761;28;20054;-83
2021/01/28 09:22:47;;;;;;;6.07;3.70;;;;;;;-0.58;55.42;94243.84;4133222;28;20106;-86
2021/01/28 09:24:52;;;;;;;6.30;4.72;;;;;;;-0.72;56.54;94249.06;4145972;28;20093;-85
2021/01/28 09:27:05;;;;;;;5.88;4.07;;;;;;;-0.76;55.90;94245.06;4140291;28;20058;-87
2021/01/28 09:29:14;;;;;;;7.32;4.97;;;;;;;-0.70;55.91;94245.47;4138606;28;20467;-87
2021/01/28 09:31:30;;;;;;;6.57;4.43;;;;;;;-0.59;55.85;94247.31;4137111;28;20042;-87
2021/01/28 09:33:39;;;;;;;8.45;4.40;;;;;;;-0.39;55.66;94252.88;4125789;28;20050;-85
2021/01/28 09:36:04;;;;;;;6.45;4.28;;;;;;;-0.38;55.85;94252.78;4139728;28;20106;-84
2021/01/28 09:38:12;;;;;;;5.28;3.75;;;;;;;-0.41;55.94;94255.53;4140580;28;20050;-84
2021/01/28 09:40:35;;;;;;;7.32;4.78;;;;;;;-0.28;56.29;94234.94;4123521;28;20050;-86
2021/01/28 09:42:36;;;;;;;6.00;4.20;;;;;;;-0.52;55.89;94240.03;4122182;28;20047;-84
2021/01/28 09:44:42;;;;;;;5.95;4.13;;;;;;;-0.54;57.01;94236.72;4136407;28;20058;-85
2021/01/28 09:46:43;;;;;;;5.90;4.25;;;;;;;-0.29;56.76;94228.16;4144189;28;20133;-84
2021/01/28 09:48:51;;;;;;;6.30;4.05;;;;;;;-0.26;56.20;94240.81;4139434;28;20129;-85
2021/01/28 09:50:52;;;;;;;8.25;5.20;;;;;;;-0.27;55.34;94244.34;4124191;28;20385;-85
2021/01/28 09:52:53;;;;;;;6.43;4.28;;;;;;;-0.43;55.24;94265.97;4138896;28;20602;-84